Time;durP1;ratioP1;P1;durP2;ratioP2;P2;SDS_P1;SDS_P2;PMS_P1;PMS_P2;Temp;Humidity;BMP_temperature;BMP_pressure;BME280_temperature;BME280_humidity;BME280_pressure;Samples;Min_cycle;Max_cycle;Signal;HPM_P1;HPM_P2
2023/06/25 00:00:27;;;;;;;1.70;1.60;;;17.50;76.50;;;;;;5058021;28;20066;-77
2023/06/25 00:02:53;;;;;;;1.73;1.63;;;17.50;76.80;;;;;;5053667;28;20025;-77
2023/06/25 00:05:19;;;;;;;1.85;1.75;;;17.50;76.90;;;;;;5052508;28;20032;-77
2023/06/25 00:07:45;;;;;;;1.77;1.67;;;17.50;77.00;;;;;;5053008;28;20035;-77
2023/06/25 00:10:11;;;;;;;2.17;1.98;;;17.50;76.90;;;;;;5053345;28;20029;-77
2023/06/25 00:12:36;;;;;;;1.60;1.50;;;17.40;77.10;;;;;;5054992;28;20108;-77
2023/06/25 00:15:02;;;;;;;1.77;1.67;;;17.40;77.50;;;;;;5054775;28;20025;-78
2023/06/25 00:17:28;;;;;;;1.88;1.77;;;17.40;77.50;;;;;;5054135;28;20028;-77
2023/06/25 00:19:56;;;;;;;1.73;1.63;;;17.40;77.40;;;;;;5035699;28;20033;-77
2023/06/25 00:22:22;;;;;;;1.70;1.60;;;17.30;77.30;;;;;;5053599;28;20120;-77
2023/06/25 00:24:47;;;;;;;1.45;1.35;;;17.30;77.40;;;;;;5064816;28;20024;-77
2023/06/25 00:27:13;;;;;;;1.63;1.52;;;17.20;77.50;;;;;;5071578;28;20033;-77
2023/06/25 00:29:39;;;;;;;1.52;1.42;;;17.20;77.70;;;;;;5064553;28;20017;-78
2023/06/25 00:32:05;;;;;;;1.65;1.55;;;17.20;77.80;;;;;;5073452;28;20388;-78
2023/06/25 00:34:31;;;;;;;1.65;1.55;;;17.10;77.90;;;;;;5052826;28;20035;-77
2023/06/25 00:36:57;;;;;;;1.50;1.40;;;17.10;77.90;;;;;;5072307;28;20073;-78
2023/06/25 00:39:23;;;;;;;1.30;1.20;;;17.10;78.00;;;;;;5071858;28;20550;-77
2023/06/25 00:41:49;;;;;;;1.48;1.38;;;17.10;77.90;;;;;;5072600;28;20033;-78
2023/06/25 00:44:14;;;;;;;1.73;1.63;;;17.10;77.70;;;;;;5071982;28;20025;-77
2023/06/25 00:46:40;;;;;;;1.60;1.50;;;17.10;77.60;;;;;;5072784;28;20029;-77
2023/06/25 00:49:06;;;;;;;2.28;2.08;;;17.10;77.70;;;;;;5054047;28;20107;-77
2023/06/25 00:51:35;;;;;;;1.65;1.55;;;17.10;78.50;;;;;;5055000;28;20048;-77
2023/06/25 00:54:05;;;;;;;1.73;1.63;;;17.10;78.10;;;;;;5051747;28;20421;-77
2023/06/25 00:56:37;;;;;;;1.70;1.60;;;17.00;78.10;;;;;;5070223;28;20496;-78
2023/06/25 00:59:03;;;;;;;1.80;1.70;;;17.00;78.40;;;;;;5046234;28;20432;-78
2023/06/25 01:01:36;;;;;;;1.45;1.35;;;17.00;78.60;;;;;;5071975;28;20112;-77
2023/06/25 01:04:12;;;;;;;1.67;1.58;;;17.00;78.80;;;;;;5071893;28;20052;-78
2023/06/25 01:06:47;;;;;;;1.90;1.77;;;17.00;78.70;;;;;;5071354;28;20405;-77
2023/06/25 01:09:14;;;;;;;1.45;1.35;;;17.00;78.50;;;;;;5071997;28;20052;-77
2023/06/25 01:11:40;;;;;;;1.83;1.73;;;16.90;78.70;;;;;;5072977;28;20532;-77
2023/06/25 01:14:05;;;;;;;1.40;1.30;;;16.90;78.90;;;;;;5073665;28;20064;-77
2023/06/25 01:16:31;;;;;;;1.60;1.50;;;16.80;78.70;;;;;;5060608;28;20025;-77
2023/06/25 01:19:02;;;;;;;1.48;1.38;;;16.80;78.70;;;;;;5053563;28;20064;-77
2023/06/25 01:21:30;;;;;;;1.40;1.30;;;16.80;78.90;;;;;;5052288;28;20021;-77
2023/06/25 01:23:56;;;;;;;1.60;1.50;;;16.70;78.90;;;;;;5051717;28;20036;-77
2023/06/25 01:26:22;;;;;;;1.70;1.60;;;16.70;78.90;;;;;;5053647;28;20110;-78
2023/06/25 01:28:47;;;;;;;1.73;1.63;;;16.70;79.00;;;;;;5062356;28;20041;-78
2023/06/25 01:31:13;;;;;;;1.88;1.70;;;16.70;79.00;;;;;;5071387;28;20025;-78
2023/06/25 01:33:39;;;;;;;2.08;1.88;;;16.60;79.20;;;;;;5071787;28;20138;-79
2023/06/25 01:36:05;;;;;;;1.40;1.30;;;16.60;79.30;;;;;;5076632;28;20073;-76
2023/06/25 01:38:30;;;;;;;1.70;1.60;;;16.60;79.50;;;;;;5073611;28;20024;-77
2023/06/25 01:40:56;;;;;;;1.45;1.35;;;16.50;79.80;;;;;;5055241;28;20029;-78
2023/06/25 01:43:22;;;;;;;1.35;1.25;;;16.50;79.90;;;;;;5055545;28;20025;-78
2023/06/25 01:45:47;;;;;;;1.90;1.80;;;16.50;80.10;;;;;;5055532;28;20428;-77
2023/06/25 01:48:13;;;;;;;1.65;1.55;;;16.40;80.10;;;;;;5074749;28;20025;-77
2023/06/25 01:50:39;;;;;;;1.90;1.80;;;16.40;80.20;;;;;;5074916;28;20077;-77
2023/06/25 01:53:05;;;;;;;1.95;1.85;;;16.40;80.40;;;;;;5077248;28;20024;-78
2023/06/25 01:55:30;;;;;;;1.80;1.70;;;16.40;80.60;;;;;;5076507;28;20036;-77
2023/06/25 01:57:56;;;;;;;1.60;1.50;;;16.30;80.70;;;;;;5070847;28;20044;-77
2023/06/25 02:00:23;;;;;;;1.85;1.67;;;16.30;81.20;;;;;;5054415;28;20032;-77
2023/06/25 02:02:48;;;;;;;1.85;1.75;;;16.30;81.40;;;;;;5078575;28;20036;-77
2023/06/25 02:05:14;;;;;;;1.48;1.38;;;16.30;81.80;;;;;;5074514;28;20082;-77
2023/06/25 02:07:40;;;;;;;1.40;1.30;;;16.30;82.10;;;;;;5069288;28;20025;-77
2023/06/25 02:10:06;;;;;;;1.65;1.55;;;16.20;81.90;;;;;;5056891;28;20029;-78
2023/06/25 02:12:31;;;;;;;1.48;1.38;;;16.20;82.00;;;;;;5052753;28;20029;-78
2023/06/25 02:14:57;;;;;;;1.60;1.50;;;16.20;82.70;;;;;;5057064;28;20447;-77
2023/06/25 02:17:22;;;;;;;1.42;1.33;;;16.20;83.10;;;;;;5041058;28;20021;-77
2023/06/25 02:19:48;;;;;;;1.48;1.35;;;16.10;83.20;;;;;;5055878;28;20117;-77
2023/06/25 02:22:14;;;;;;;1.48;1.38;;;16.10;83.50;;;;;;5054068;28;20021;-76
2023/06/25 02:24:39;;;;;;;1.40;1.30;;;16.10;83.70;;;;;;5054117;28;20166;-77
2023/06/25 02:27:06;;;;;;;1.50;1.40;;;16.00;83.90;;;;;;5055966;28;20029;-78
2023/06/25 02:29:31;;;;;;;1.58;1.48;;;16.10;84.30;;;;;;5064422;28;20021;-77
2023/06/25 02:31:57;;;;;;;1.40;1.30;;;16.00;84.70;;;;;;5056151;28;20103;-78
2023/06/25 02:34:23;;;;;;;1.55;1.45;;;16.00;85.30;;;;;;5054515;28;20082;-77
2023/06/25 02:36:50;;;;;;;2.17;1.70;;;15.90;86.10;;;;;;5058848;28;20025;-77
2023/06/25 02:39:16;;;;;;;1.75;1.65;;;15.90;87.00;;;;;;5055386;28;20025;-77
2023/06/25 02:41:42;;;;;;;1.98;1.80;;;15.80;87.30;;;;;;5055064;28;20021;-76
2023/06/25 02:44:07;;;;;;;2.45;2.20;;;15.70;87.60;;;;;;5054567;28;20442;-77
2023/06/25 02:46:35;;;;;;;2.50;2.30;;;15.70;88.20;;;;;;5059376;28;20037;-77
2023/06/25 02:49:01;;;;;;;5.07;3.00;;;15.60;88.20;;;;;;5077474;28;20099;-77
2023/06/25 02:51:27;;;;;;;4.07;3.60;;;15.50;88.70;;;;;;5055744;28;20017;-77
2023/06/25 02:53:52;;;;;;;4.03;3.63;;;15.40;88.90;;;;;;5055782;28;20025;-77
2023/06/25 02:56:18;;;;;;;4.03;3.50;;;15.30;89.10;;;;;;5053923;28;20025;-78
2023/06/25 02:58:44;;;;;;;4.13;3.40;;;15.20;89.50;;;;;;5063961;28;20033;-78
2023/06/25 03:01:09;;;;;;;3.72;3.15;;;15.20;89.90;;;;;;5074348;28;20028;-78
2023/06/25 03:03:35;;;;;;;3.28;2.97;;;15.20;90.00;;;;;;5063370;28;20090;-77
2023/06/25 03:06:01;;;;;;;2.67;2.45;;;15.20;90.10;;;;;;5051394;28;20478;-76
2023/06/25 03:08:26;;;;;;;2.50;2.30;;;15.20;90.20;;;;;;5055662;28;20029;-78
2023/06/25 03:10:52;;;;;;;2.33;2.13;;;15.20;90.10;;;;;;5054672;28;20025;-79
2023/06/25 03:13:18;;;;;;;2.35;2.15;;;15.20;90.30;;;;;;5053531;28;20032;-77
2023/06/25 03:15:43;;;;;;;2.03;1.92;;;15.30;90.40;;;;;;5053753;28;20449;-77
2023/06/25 03:18:09;;;;;;;1.92;1.83;;;15.30;90.40;;;;;;5060031;28;20237;-78
2023/06/25 03:20:35;;;;;;;2.28;2.08;;;15.40;90.40;;;;;;5054270;28;20127;-78
2023/06/25 03:23:00;;;;;;;1.95;1.85;;;15.40;90.40;;;;;;5051820;28;20031;-79
2023/06/25 03:25:26;;;;;;;2.35;2.15;;;15.40;90.30;;;;;;5053299;28;20025;-78
2023/06/25 03:27:51;;;;;;;2.28;2.08;;;15.40;90.10;;;;;;5055679;28;20575;-78
2023/06/25 03:30:17;;;;;;;2.03;1.88;;;15.50;90.10;;;;;;5067998;28;20024;-78
2023/06/25 03:32:44;;;;;;;1.92;1.83;;;15.50;90.20;;;;;;5072276;28;20029;-78
2023/06/25 03:35:10;;;;;;;1.60;1.50;;;15.50;90.10;;;;;;5060368;28;20477;-77
2023/06/25 03:37:35;;;;;;;1.70;1.60;;;15.50;90.10;;;;;;5055050;28;20078;-77
2023/06/25 03:40:01;;;;;;;1.77;1.67;;;15.50;90.20;;;;;;5070918;28;20028;-78
2023/06/25 03:42:27;;;;;;;2.40;2.20;;;15.50;90.10;;;;;;5054061;28;20021;-78
2023/06/25 03:44:54;;;;;;;1.95;1.85;;;15.50;90.10;;;;;;5053257;28;20411;-78
2023/06/25 03:47:20;;;;;;;1.80;1.70;;;15.60;90.00;;;;;;5053895;28;20033;-78
2023/06/25 03:49:47;;;;;;;1.60;1.50;;;15.60;89.80;;;;;;5067024;28;20085;-78
2023/06/25 03:52:12;;;;;;;1.40;1.30;;;15.70;89.50;;;;;;5072979;28;20044;-77
2023/06/25 03:54:38;;;;;;;2.80;1.80;;;15.70;89.30;;;;;;5071428;28;20089;-77
2023/06/25 03:57:04;;;;;;;1.60;1.50;;;15.70;88.90;;;;;;5070398;28;20021;-76
2023/06/25 03:59:31;;;;;;;1.58;1.48;;;15.80;88.60;;;;;;5064609;28;20037;-76
2023/06/25 04:01:56;;;;;;;1.30;1.20;;;15.80;88.30;;;;;;5068090;28;20371;-76
2023/06/25 04:04:22;;;;;;;1.55;1.45;;;15.80;88.10;;;;;;5050139;28;20079;-75
2023/06/25 04:06:48;;;;;;;1.83;1.73;;;15.90;87.80;;;;;;5052914;28;20201;-75
2023/06/25 04:09:13;;;;;;;1.75;1.65;;;15.90;87.40;;;;;;5058405;28;20091;-77
2023/06/25 04:11:39;;;;;;;1.30;1.30;;;15.90;87.20;;;;;;5052380;28;20021;-76
2023/06/25 04:14:05;;;;;;;2.00;1.85;;;15.90;86.80;;;;;;5033456;28;20396;-76
2023/06/25 04:16:30;;;;;;;1.48;1.38;;;16.00;86.80;;;;;;5067602;28;20043;-75
2023/06/25 04:18:56;;;;;;;1.48;1.38;;;16.10;86.50;;;;;;5071775;28;20100;-77
2023/06/25 04:21:22;;;;;;;1.35;1.27;;;16.10;86.20;;;;;;5071768;28;20039;-76
2023/06/25 04:23:47;;;;;;;1.60;1.50;;;16.20;86.10;;;;;;5072684;28;20449;-76
2023/06/25 04:26:13;;;;;;;1.48;1.38;;;16.20;85.90;;;;;;5060464;28;20064;-76
2023/06/25 04:28:39;;;;;;;1.25;1.15;;;16.30;85.90;;;;;;5060132;28;20413;-76
2023/06/25 04:31:04;;;;;;;1.40;1.30;;;16.40;86.00;;;;;;5072317;28;20473;-76
2023/06/25 04:33:30;;;;;;;1.20;1.20;;;16.50;86.00;;;;;;5074014;28;20473;-76
2023/06/25 04:35:57;;;;;;;1.73;1.63;;;16.50;85.60;;;;;;5070660;28;20131;-76
2023/06/25 04:38:22;;;;;;;1.45;1.35;;;16.60;85.20;;;;;;5073264;28;20423;-77
2023/06/25 04:40:48;;;;;;;1.05;1.05;;;16.70;84.90;;;;;;5072272;28;20040;-76
2023/06/25 04:43:14;;;;;;;1.58;1.48;;;16.70;84.50;;;;;;5073078;28;20056;-76
2023/06/25 04:45:39;;;;;;;1.30;1.20;;;16.80;83.70;;;;;;5071690;28;20082;-76
2023/06/25 04:48:05;;;;;;;1.60;1.50;;;16.80;83.10;;;;;;5052424;28;20462;-77
2023/06/25 04:50:31;;;;;;;1.88;1.77;;;16.90;82.20;;;;;;5061574;28;20528;-75
2023/06/25 04:52:57;;;;;;;2.35;2.15;;;16.90;81.50;;;;;;5058812;28;20040;-76
2023/06/25 04:55:22;;;;;;;1.70;1.60;;;16.90;81.00;;;;;;5069950;28;20450;-76
2023/06/25 04:57:48;;;;;;;1.90;1.80;;;17.00;81.00;;;;;;5061750;28;20095;-77
2023/06/25 05:00:14;;;;;;;1.75;1.65;;;17.10;81.30;;;;;;5060556;28;20041;-76
2023/06/25 05:02:40;;;;;;;1.77;1.67;;;17.20;81.00;;;;;;5052977;28;20102;-76
2023/06/25 05:05:06;;;;;;;1.85;1.75;;;17.30;80.90;;;;;;5051572;28;20553;-77
2023/06/25 05:07:32;;;;;;;1.70;1.60;;;;;;;;;;5053744;28;20029;-76
2023/06/25 05:09:57;;;;;;;1.90;1.80;;;17.90;80.90;;;;;;5064479;28;20048;-77
2023/06/25 05:12:23;;;;;;;1.83;1.73;;;19.60;78.40;;;;;;5078443;28;20024;-77
2023/06/25 05:14:48;;;;;;;1.80;1.70;;;22.00;70.80;;;;;;5076704;28;20632;-75
2023/06/25 05:17:14;;;;;;;1.58;1.48;;;24.10;64.50;;;;;;5075533;28;20012;-76
2023/06/25 05:19:40;;;;;;;1.45;1.30;;;26.00;59.10;;;;;;5075685;28;20064;-76
2023/06/25 05:22:05;;;;;;;1.80;1.70;;;27.60;54.10;;;;;;5076527;28;20032;-76
2023/06/25 05:24:32;;;;;;;1.98;1.88;;;;;;;;;;5077287;28;20031;-75
2023/06/25 05:26:57;;;;;;;2.33;2.13;;;29.00;48.30;;;;;;5074901;28;20025;-76
2023/06/25 05:29:23;;;;;;;1.98;1.88;;;29.00;47.30;;;;;;5068326;28;20444;-77
2023/06/25 05:31:49;;;;;;;2.00;1.90;;;29.40;46.80;;;;;;5068518;28;20111;-76
2023/06/25 05:34:14;;;;;;;1.90;1.80;;;30.10;46.00;;;;;;5060728;28;20029;-77
2023/06/25 05:36:40;;;;;;;1.83;1.73;;;31.00;44.90;;;;;;5055672;28;20082;-77
2023/06/25 05:39:05;;;;;;;1.80;1.70;;;31.80;43.60;;;;;;5055372;28;20106;-77
2023/06/25 05:41:32;;;;;;;1.65;1.55;;;32.30;42.90;;;;;;5054949;28;20052;-77
2023/06/25 05:43:58;;;;;;;1.52;1.50;;;32.90;41.60;;;;;;5036180;28;20017;-77
2023/06/25 05:46:23;;;;;;;1.55;1.50;;;33.30;40.70;;;;;;5054953;28;20397;-76
2023/06/25 05:48:49;;;;;;;1.48;1.48;;;33.00;40.70;;;;;;5055128;28;20040;-76
2023/06/25 05:51:14;;;;;;;1.88;1.77;;;32.80;40.40;;;;;;5054712;28;20111;-77
2023/06/25 05:53:43;;;;;;;2.28;2.17;;;32.80;40.80;;;;;;5054609;28;20037;-77
2023/06/25 05:56:09;;;;;;;2.47;2.38;;;32.40;40.20;;;;;;5052325;28;20075;-76
2023/06/25 05:58:36;;;;;;;2.60;2.40;;;31.90;41.30;;;;;;5055711;28;20473;-78
2023/06/25 06:01:03;;;;;;;2.25;2.15;;;32.20;41.00;;;;;;5055841;28;20029;-76
2023/06/25 06:03:28;;;;;;;2.08;1.98;;;32.60;41.10;;;;;;5036588;28;20041;-76
2023/06/25 06:05:57;;;;;;;1.90;1.80;;;33.30;40.20;;;;;;5054031;28;20111;-76
2023/06/25 06:08:22;;;;;;;1.95;1.85;;;33.30;39.60;;;;;;5055164;28;20067;-77
2023/06/25 06:10:48;;;;;;;1.80;1.70;;;33.10;39.80;;;;;;5055493;28;20032;-76
2023/06/25 06:13:14;;;;;;;1.70;1.60;;;33.40;39.90;;;;;;5054864;28;20025;-77
2023/06/25 06:15:40;;;;;;;1.85;1.83;;;33.60;39.20;;;;;;5053964;28;20029;-76
2023/06/25 06:18:06;;;;;;;2.58;2.40;;;33.30;39.10;;;;;;5054926;28;20396;-77
2023/06/25 06:20:31;;;;;;;2.20;2.10;;;33.00;39.60;;;;;;5053704;28;20043;-76
2023/06/25 06:22:58;;;;;;;2.25;2.10;;;33.40;39.50;;;;;;5055180;28;20386;-76
2023/06/25 06:25:24;;;;;;;2.20;2.10;;;33.90;39.40;;;;;;5063372;28;20029;-76
2023/06/25 06:27:49;;;;;;;2.00;1.90;;;34.40;38.40;;;;;;5049613;28;20501;-77
2023/06/25 06:30:15;;;;;;;2.92;2.72;;;34.60;38.30;;;;;;5073885;28;20040;-77
2023/06/25 06:32:41;;;;;;;2.47;2.38;;;;;;;;;;5073458;28;20054;-77
2023/06/25 06:35:07;;;;;;;2.75;2.55;;;33.50;38.30;;;;;;5053519;28;20025;-77
2023/06/25 06:37:33;;;;;;;2.88;2.67;;;33.30;39.50;;;;;;5053457;28;20023;-76
2023/06/25 06:39:59;;;;;;;2.60;2.40;;;33.60;39.10;;;;;;5053372;28;20025;-76
2023/06/25 06:42:24;;;;;;;2.38;2.28;;;33.80;39.00;;;;;;5053325;28;20028;-76
2023/06/25 06:44:50;;;;;;;2.30;2.20;;;34.20;38.40;;;;;;5058450;28;20501;-76
2023/06/25 06:47:15;;;;;;;2.15;2.05;;;34.50;38.50;;;;;;5059120;28;20445;-76
2023/06/25 06:49:41;;;;;;;2.13;2.03;;;34.90;38.50;;;;;;5053177;28;20081;-76
2023/06/25 06:52:07;;;;;;;2.10;2.00;;;35.00;37.80;;;;;;5062292;28;20535;-76
2023/06/25 06:54:33;;;;;;;2.40;2.30;;;35.10;37.90;;;;;;5073540;28;20118;-77
2023/06/25 06:56:58;;;;;;;2.10;2.00;;;34.90;37.60;;;;;;5072336;28;20024;-77
2023/06/25 06:59:24;;;;;;;2.30;2.20;;;34.50;38.10;;;;;;5065606;28;20047;-77
2023/06/25 07:01:49;;;;;;;2.00;1.90;;;34.50;38.50;;;;;;5072887;28;20032;-76
2023/06/25 07:04:15;;;;;;;2.45;2.35;;;34.90;38.00;;;;;;5073409;28;20021;-76
2023/06/25 07:06:41;;;;;;;2.60;2.40;;;35.00;37.50;;;;;;5074085;28;20021;-76
2023/06/25 07:09:07;;;;;;;2.80;2.60;;;34.30;38.10;;;;;;5073779;28;20156;-78
2023/06/25 07:11:32;;;;;;;2.90;2.70;;;33.80;38.40;;;;;;5073415;28;20024;-77
2023/06/25 07:13:58;;;;;;;2.85;2.65;;;33.20;39.10;;;;;;5068023;28;20402;-76
2023/06/25 07:16:24;;;;;;;3.58;3.28;;;33.10;40.00;;;;;;5054564;28;20088;-76
2023/06/25 07:18:49;;;;;;;3.00;2.80;;;33.20;39.00;;;;;;5053635;28;20025;-77
2023/06/25 07:21:15;;;;;;;3.33;3.13;;;32.90;39.50;;;;;;5053447;28;20036;-77
2023/06/25 07:23:41;;;;;;;2.78;2.58;;;32.10;39.20;;;;;;5067911;28;20028;-77
2023/06/25 07:26:07;;;;;;;3.25;3.05;;;;;;;;;;5072698;28;20393;-77
2023/06/25 07:28:32;;;;;;;3.10;2.88;;;28.20;43.10;;;;;;5073186;28;20031;-77
2023/06/25 07:30:58;;;;;;;2.65;2.45;;;26.50;46.50;;;;;;5067588;28;20481;-75
2023/06/25 07:33:24;;;;;;;2.40;2.30;;;25.50;48.60;;;;;;5074196;28;20466;-76
2023/06/25 07:35:49;;;;;;;3.50;3.20;;;24.80;50.00;;;;;;5071774;28;20122;-76
2023/06/25 07:38:15;;;;;;;3.17;2.97;;;24.20;51.40;;;;;;5072894;28;20052;-76
2023/06/25 07:40:41;;;;;;;3.92;3.53;;;23.70;52.90;;;;;;5067646;28;20478;-76
2023/06/25 07:43:07;;;;;;;6.18;3.35;;;23.30;54.10;;;;;;5053892;28;20025;-76
2023/06/25 07:45:32;;;;;;;3.35;3.05;;;23.10;55.10;;;;;;5052684;28;20032;-76
2023/06/25 07:47:58;;;;;;;4.05;3.75;;;22.90;55.60;;;;;;5053143;28;20025;-77
2023/06/25 07:50:23;;;;;;;3.78;3.35;;;22.80;56.10;;;;;;5053582;28;20025;-76
2023/06/25 07:52:56;;;;;;;3.55;3.15;;;22.80;56.20;;;;;;5110203;27;20929;-76
2023/06/25 07:55:22;;;;;;;4.15;3.67;;;22.80;56.30;;;;;;5110230;28;20152;-76
2023/06/25 07:57:47;;;;;;;3.22;2.92;;;22.70;56.40;;;;;;5120775;28;20026;-76
2023/06/25 08:00:14;;;;;;;4.05;3.67;;;22.80;56.60;;;;;;5111000;28;20371;-77
2023/06/25 08:02:39;;;;;;;3.65;3.35;;;22.80;56.50;;;;;;5110930;28;20027;-76
2023/06/25 08:05:05;;;;;;;3.58;3.25;;;22.80;56.10;;;;;;5112647;28;20027;-74
2023/06/25 08:07:31;;;;;;;3.60;3.30;;;22.80;56.10;;;;;;5110788;28;20020;-77
2023/06/25 08:09:56;;;;;;;3.47;3.17;;;22.90;56.10;;;;;;5110097;28;20020;-76
2023/06/25 08:12:22;;;;;;;3.47;3.15;;;23.00;55.90;;;;;;5096616;28;20488;-76
2023/06/25 08:14:48;;;;;;;4.10;3.70;;;23.10;55.60;;;;;;5087909;28;20032;-76
2023/06/25 08:17:13;;;;;;;4.13;3.50;;;23.00;55.50;;;;;;5087821;28;20539;-76
2023/06/25 08:19:39;;;;;;;4.32;3.63;;;23.10;55.10;;;;;;5089175;28;20035;-76
2023/06/25 08:22:05;;;;;;;3.50;3.03;;;23.10;55.20;;;;;;5095089;28;20106;-75
2023/06/25 08:24:31;;;;;;;3.60;3.30;;;;;;;;;;5108776;28;20152;-76
2023/06/25 08:26:57;;;;;;;3.53;3.22;;;23.30;54.50;;;;;;5111067;28;20042;-76
2023/06/25 08:29:22;;;;;;;3.55;3.25;;;23.50;54.60;;;;;;5121177;28;20023;-77
2023/06/25 08:31:48;;;;;;;3.92;2.92;;;23.50;55.00;;;;;;5125831;28;20059;-76
2023/06/25 08:34:14;;;;;;;2.95;2.75;;;23.70;54.10;;;;;;5108635;28;20102;-76
2023/06/25 08:36:39;;;;;;;3.10;2.67;;;23.80;53.60;;;;;;5109799;28;20081;-76
2023/06/25 08:39:05;;;;;;;3.08;2.78;;;23.90;53.30;;;;;;5107971;28;20466;-76
2023/06/25 08:41:30;;;;;;;3.30;3.10;;;24.00;52.90;;;;;;5108797;28;20024;-76
2023/06/25 08:43:56;;;;;;;3.65;3.35;;;24.10;52.30;;;;;;5091696;28;20481;-76
2023/06/25 08:46:24;;;;;;;5.70;3.60;;;24.20;52.00;;;;;;5094308;28;20028;-77
2023/06/25 08:48:55;;;;;;;4.72;3.67;;;24.20;51.30;;;;;;5089378;28;20024;-76
2023/06/25 08:51:25;;;;;;;4.55;4.15;;;24.20;50.60;;;;;;5087573;28;20087;-76
2023/06/25 08:53:51;;;;;;;3.70;3.40;;;24.20;50.90;;;;;;5096734;28;20025;-76
2023/06/25 08:56:17;;;;;;;4.18;3.40;;;24.20;50.60;;;;;;5087820;28;20036;-78
2023/06/25 08:58:44;;;;;;;3.67;2.75;;;24.30;50.10;;;;;;5114410;28;20155;-76
2023/06/25 09:01:13;;;;;;;3.42;3.10;;;24.30;50.40;;;;;;5110572;27;20471;-76
2023/06/25 09:03:42;;;;;;;3.13;2.92;;;24.30;50.50;;;;;;5091282;28;20038;-78
2023/06/25 09:06:15;;;;;;;3.50;3.20;;;24.60;50.70;;;;;;5098733;28;20029;-78
2023/06/25 09:08:42;;;;;;;3.40;3.10;;;24.70;49.70;;;;;;5090913;28;20052;-77
2023/06/25 09:11:09;;;;;;;3.38;3.10;;;24.80;48.90;;;;;;5095578;28;20025;-77
2023/06/25 09:13:36;;;;;;;3.40;3.10;;;25.00;48.90;;;;;;5092632;28;20027;-77
2023/06/25 09:16:04;;;;;;;3.72;3.42;;;25.10;48.80;;;;;;5089375;28;20077;-78
2023/06/25 09:18:31;;;;;;;3.58;3.28;;;25.10;48.90;;;;;;5091908;28;20020;-78
2023/06/25 09:21:01;;;;;;;6.28;3.72;;;25.20;49.30;;;;;;5098591;28;20081;-78
2023/06/25 09:23:27;;;;;;;4.05;3.65;;;25.30;48.30;;;;;;5087378;28;20096;-78
2023/06/25 09:25:53;;;;;;;4.15;3.85;;;25.30;48.00;;;;;;5086362;28;20052;-78
2023/06/25 09:28:19;;;;;;;4.65;3.72;;;25.40;47.50;;;;;;5104467;28;20034;-79
2023/06/25 09:30:46;;;;;;;4.32;3.95;;;25.50;48.00;;;;;;5083401;28;20515;-77
2023/06/25 09:33:12;;;;;;;9.45;4.70;;;25.40;47.10;;;;;;5086376;28;20037;-78
2023/06/25 09:35:38;;;;;;;4.60;4.20;;;25.40;46.90;;;;;;5078701;28;20464;-79
2023/06/25 09:38:05;;;;;;;3.67;3.38;;;25.40;47.40;;;;;;5075477;28;20031;-78
2023/06/25 09:40:31;;;;;;;3.03;2.83;;;25.60;47.30;;;;;;5075424;28;20069;-78
2023/06/25 09:42:58;;;;;;;3.45;3.15;;;25.70;47.20;;;;;;5075834;28;20024;-78
2023/06/25 09:45:25;;;;;;;3.25;2.97;;;26.00;47.00;;;;;;5085673;28;20128;-79
2023/06/25 09:47:53;;;;;;;3.83;3.47;;;26.10;46.20;;;;;;5094942;28;20031;-78
2023/06/25 09:50:28;;;;;;;4.70;4.30;;;26.10;45.80;;;;;;5094816;28;20023;-77
2023/06/25 09:52:58;;;;;;;4.15;3.75;;;26.10;45.30;;;;;;5093650;28;20385;-77
2023/06/25 09:55:27;;;;;;;4.80;4.35;;;26.20;45.80;;;;;;5084793;28;20024;-77
2023/06/25 09:57:54;;;;;;;4.35;3.78;;;26.20;45.30;;;;;;5096300;28;20027;-77
2023/06/25 10:00:21;;;;;;;5.07;4.50;;;26.30;44.80;;;;;;5098045;28;20035;-78
2023/06/25 10:02:48;;;;;;;5.50;4.03;;;;;;;;;;5093587;28;20323;-77
2023/06/25 10:05:13;;;;;;;4.65;4.25;;;26.30;43.30;;;;;;5092095;28;20543;-78
2023/06/25 10:07:40;;;;;;;4.70;4.25;;;26.30;43.30;;;;;;5093130;28;20062;-77
2023/06/25 10:10:06;;;;;;;4.97;3.90;;;26.30;43.80;;;;;;5093827;28;20048;-77
2023/06/25 10:12:41;;;;;;;4.88;4.47;;;26.30;44.50;;;;;;5085608;28;20447;-78
2023/06/25 10:15:07;;;;;;;4.40;4.00;;;26.50;44.60;;;;;;5081521;28;20031;-75
2023/06/25 10:17:33;;;;;;;4.70;4.30;;;26.60;44.40;;;;;;5082510;28;20038;-75
2023/06/25 10:20:01;;;;;;;4.72;4.32;;;26.90;44.80;;;;;;5084718;28;20016;-76
2023/06/25 10:22:28;;;;;;;4.97;4.57;;;26.90;43.90;;;;;;5093266;28;20055;-75
2023/06/25 10:24:55;;;;;;;5.45;4.95;;;26.90;43.70;;;;;;5072203;28;20512;-76
2023/06/25 10:27:24;;;;;;;4.97;4.47;;;27.00;43.00;;;;;;5085052;28;20491;-75
2023/06/25 10:29:50;;;;;;;5.85;5.35;;;27.00;43.60;;;;;;5104393;28;20068;-76
2023/06/25 10:32:20;;;;;;;5.72;4.50;;;26.80;44.50;;;;;;5113670;27;20436;-74
2023/06/25 10:35:03;;;;;;;5.38;4.88;;;26.70;44.60;;;;;;5112452;28;20030;-75
2023/06/25 10:37:33;;;;;;;4.35;3.95;;;26.80;44.80;;;;;;5097818;28;20107;-76
2023/06/25 10:40:05;;;;;;;5.00;4.50;;;27.00;44.20;;;;;;5072952;28;20028;-75
2023/06/25 10:42:31;;;;;;;4.80;4.40;;;27.20;43.20;;;;;;5072298;28;20504;-75
2023/06/25 10:44:57;;;;;;;4.00;3.70;;;27.40;42.70;;;;;;5072214;28;20044;-75
2023/06/25 10:47:23;;;;;;;4.50;4.10;;;27.70;42.00;;;;;;5072813;28;20027;-75
2023/06/25 10:49:49;;;;;;;5.10;4.60;;;27.90;41.30;;;;;;5074045;28;20021;-76
2023/06/25 10:52:14;;;;;;;4.60;4.20;;;27.90;41.20;;;;;;5073713;28;20500;-76
2023/06/25 10:54:40;;;;;;;4.82;4.43;;;27.90;41.60;;;;;;5072918;28;20044;-76
2023/06/25 10:57:10;;;;;;;4.65;4.25;;;27.90;41.80;;;;;;5080883;28;20118;-75
2023/06/25 10:59:37;;;;;;;4.90;4.45;;;28.10;41.80;;;;;;5106499;28;20029;-75
2023/06/25 11:02:13;;;;;;;7.05;5.75;;;28.30;42.10;;;;;;5113710;28;20135;-76
2023/06/25 11:04:39;;;;;;;6.13;5.53;;;28.30;41.60;;;;;;5114225;28;20032;-77
2023/06/25 11:07:05;;;;;;;7.63;4.53;;;28.10;42.50;;;;;;5109199;28;20361;-75
2023/06/25 11:09:31;;;;;;;6.57;4.93;;;28.00;43.00;;;;;;5092368;28;20042;-76
2023/06/25 11:11:57;;;;;;;5.25;4.75;;;27.80;43.10;;;;;;5085918;28;20120;-75
2023/06/25 11:14:24;;;;;;;6.25;5.65;;;27.70;42.70;;;;;;5071458;28;20051;-75
2023/06/25 11:16:49;;;;;;;5.72;5.13;;;27.70;42.50;;;;;;5071763;28;20027;-76
2023/06/25 11:19:15;;;;;;;5.20;4.70;;;27.80;43.00;;;;;;5088742;28;20020;-76
2023/06/25 11:21:41;;;;;;;5.63;5.13;;;27.80;43.10;;;;;;5091467;28;20496;-76
2023/06/25 11:24:10;;;;;;;5.47;4.97;;;27.80;42.80;;;;;;5091175;28;20131;-75
2023/06/25 11:26:40;;;;;;;5.50;5.00;;;27.90;43.20;;;;;;5090472;28;20145;-76
2023/06/25 11:29:07;;;;;;;5.95;5.05;;;28.00;43.40;;;;;;5093442;28;20023;-77
2023/06/25 11:31:52;;;;;;;6.75;5.45;;;28.10;43.20;;;;;;5100848;28;20035;-75
2023/06/25 11:34:25;;;;;;;5.38;4.88;;;28.10;42.50;;;;;;5106035;28;20075;-76
2023/06/25 11:36:51;;;;;;;5.22;4.72;;;28.00;42.80;;;;;;5092205;28;20028;-76
2023/06/25 11:39:17;;;;;;;5.20;4.72;;;28.20;42.90;;;;;;5091326;28;20029;-75
2023/06/25 11:41:43;;;;;;;5.05;4.65;;;28.50;42.30;;;;;;5090207;28;20068;-77
2023/06/25 11:44:21;;;;;;;5.25;4.78;;;28.70;41.70;;;;;;5091059;28;20032;-75
2023/06/25 11:46:51;;;;;;;6.05;5.47;;;28.80;41.60;;;;;;5091572;28;20031;-76
2023/06/25 11:49:18;;;;;;;7.63;5.88;;;28.80;41.30;;;;;;5083436;28;20027;-76
2023/06/25 11:51:51;;;;;;;6.90;6.20;;;28.70;41.20;;;;;;5071401;28;20074;-76
2023/06/25 11:54:17;;;;;;;8.05;5.80;;;28.50;41.60;;;;;;5070793;28;20021;-75
2023/06/25 11:56:43;;;;;;;5.57;5.07;;;28.40;41.90;;;;;;5073173;28;20098;-76
2023/06/25 11:59:08;;;;;;;6.03;5.40;;;28.20;42.00;;;;;;5103066;28;20418;-76
2023/06/25 12:01:34;;;;;;;6.43;5.82;;;28.20;42.40;;;;;;5103654;28;20028;-75
2023/06/25 12:04:00;;;;;;;6.65;5.68;;;;;;;;;;5091062;28;20127;-76
2023/06/25 12:06:26;;;;;;;7.63;6.50;;;28.10;42.10;;;;;;5091952;28;20063;-76
2023/06/25 12:08:51;;;;;;;7.28;6.50;;;28.20;42.30;;;;;;5092139;28;20512;-76
2023/06/25 12:11:18;;;;;;;7.60;6.05;;;28.20;42.40;;;;;;5070579;28;20036;-76
2023/06/25 12:13:43;;;;;;;5.97;5.47;;;28.30;41.80;;;;;;5071334;28;20020;-75
2023/06/25 12:16:09;;;;;;;6.90;6.20;;;28.30;41.90;;;;;;5071086;28;20099;-76
2023/06/25 12:18:34;;;;;;;6.40;5.80;;;28.30;42.70;;;;;;5071447;28;20025;-77
2023/06/25 12:21:00;;;;;;;7.28;6.60;;;28.30;43.70;;;;;;5071406;28;20392;-75
2023/06/25 12:23:26;;;;;;;6.78;6.18;;;28.20;43.80;;;;;;5071212;28;20025;-76
2023/06/25 12:25:51;;;;;;;6.30;5.70;;;28.20;43.70;;;;;;5070737;28;20036;-76
2023/06/25 12:28:17;;;;;;;6.07;5.32;;;28.40;42.90;;;;;;5093404;28;20023;-76
2023/06/25 12:30:43;;;;;;;7.05;6.20;;;28.60;42.90;;;;;;5098748;28;20032;-76
2023/06/25 12:33:08;;;;;;;6.88;6.18;;;28.80;41.50;;;;;;5091291;28;20027;-76
2023/06/25 12:35:34;;;;;;;6.95;6.35;;;28.70;41.50;;;;;;5090810;28;20103;-76
2023/06/25 12:37:59;;;;;;;6.45;5.85;;;28.70;42.00;;;;;;5090652;28;20016;-76
2023/06/25 12:40:25;;;;;;;7.20;6.50;;;28.50;42.40;;;;;;5091033;28;20020;-75
2023/06/25 12:42:51;;;;;;;6.75;6.05;;;28.40;42.70;;;;;;5074814;28;20023;-76